• Join FlightAware (Why Join?)
  • Login
  • US Flag 
01:19PM EDT


 

Airport Tracker/Info


-or-


 

Live Flight TrackerFlight Track Log ✈ AWI3845 ✈ 15-May-2013 ✈ KPHL - KCAE

Flight Track Log - Related Links

Times and Time Zones

All times are in EDT time to prevent confusion due to time zone crossing. See the AWI3845 flight status page for this flight to view local times or setup timezone preferences in your user account.

Time Position Orientation Groundspeed Altitude Reporting Facility
EDT Latitude Longitude Course Direction KTS MPH feet Rate Location/Type
03:57PM 39.8667 -75.2833 232° Southwest 152 175 1,000  Level Philadelphia TRACON
03:58PM 39.8500 -75.3333 247° West 177 204 3,300 2,220 Climbing Philadelphia TRACON
04:00PM 39.8481 -75.5611 258° West  Level FlightAware Approximate
04:00PM 39.8456 -75.5053 268° West 232 267 7,900  Level New York Center
04:01PM 39.8333 -75.6757 270° West  Level FlightAware Approximate
04:01PM 39.8422 -75.5861 267° West 244 281 10,000  Level New York Center
04:02PM 39.8291 -75.7903 232° Southwest  Level FlightAware Approximate
04:02PM 39.8375 -75.6967 267° West 269 310 11,500  Level New York Center
04:03PM 39.7741 -75.8822 232° Southwest  Level FlightAware Approximate
04:03PM 39.8006 -75.7858 242° Southwest 294 338 12,800  Level New York Center
04:04PM 39.7392 -75.9003 235° Southwest 337 388 13,700 960 Climbing New York Center
04:05PM 39.6872 -75.9936 234° Southwest 361 415 14,800 1,020 Climbing New York Center
04:07PM 39.6039 -76.1411 234° Southwest 381 438 16,100 900 Climbing Washington Center
04:08PM 39.5431 -76.2508 234° Southwest 381 438 16,900 840 Climbing Washington Center
04:09PM 39.4800 -76.3606 233° Southwest 381 438 17,800 900 Climbing Washington Center
04:10PM 39.4144 -76.4700 232° Southwest 387 445 18,800 1,080 Climbing Washington Center
04:11PM 39.3428 -76.5736 228° Southwest 392 451 20,100 1,320 Climbing Washington Center
04:12PM 39.2775 -76.6747 230° Southwest 392 451 21,500 1,320 Climbing Washington Center
04:13PM 39.2119 -76.7783 231° Southwest 387 445 22,700 1,320 Climbing Washington Center
04:14PM 39.1442 -76.8817 230° Southwest 381 438 24,200 1,560 Climbing Washington Center
04:15PM 39.0806 -76.9794 230° Southwest 371 427 25,800 1,860 Climbing Washington Center
04:16PM 39.0128 -77.0717 227° Southwest 366 421 28,000 1,020 Climbing Washington Center
04:17PM 38.9344 -77.1581 221° Southwest 366 421 27,900  Descending Washington Center
04:18PM 38.8542 -77.2444 220° Southwest 373 429 28,000  Climbing Washington Center
04:19PM 38.7672 -77.3383 220° Southwest 395 455 28,000  Level Washington Center
04:20PM 38.6783 -77.4372 221° Southwest 413 475 28,000  Level Washington Center
04:21PM 38.5850 -77.5386 220° Southwest 427 491 28,000  Level Washington Center
04:22PM 38.4936 -77.6369 220° Southwest 433 498 28,000  Level Washington Center
04:23PM 38.4000 -77.7378 220° Southwest 443 510 28,000  Level Washington Center
04:24PM 38.3086 -77.8408 222° Southwest 443 510 28,000  Level Washington Center
04:25PM 38.2128 -77.9436 220° Southwest 443 510 28,000  Level Washington Center
04:26PM 38.1169 -78.0436 219° Southwest 443 510 28,000  Level Washington Center
04:27PM 38.0231 -78.1461 221° Southwest 443 510 28,000  Level Washington Center
04:28PM 37.9400 -78.2275 218° Southwest 436 502 28,000  Level Washington Center
04:29PM 37.8419 -78.3186 216° Southwest 441 507 28,000  Level Washington Center
04:30PM 37.7439 -78.4150 218° Southwest 446 513 28,000  Level Washington Center
04:31PM 37.6350 -78.5158 216° Southwest 446 513 28,000  Level Washington Center
04:32PM 37.5347 -78.6089 216° Southwest 446 513 28,000  Level Washington Center
04:33PM 37.4342 -78.7017 216° Southwest 446 513 28,000  Level Washington Center
04:34PM 37.3358 -78.7917 216° Southwest 441 507 28,000  Level Washington Center
04:35PM 37.2461 -78.8767 217° Southwest 446 513 28,000  Level Washington Center
04:36PM 37.1475 -78.9661 216° Southwest 446 513 28,000  Level Washington Center
04:37PM 37.0511 -79.0583 217° Southwest 446 513 28,000  Level Washington Center
04:38PM 36.9503 -79.1500 216° Southwest 446 513 28,000  Level Washington Center
04:39PM 36.8517 -79.2414 217° Southwest 446 513 28,000  Level Washington Center
04:40PM 36.7464 -79.3400 217° Southwest 441 507 28,000  Level Washington Center
04:41PM 36.6433 -79.4308 215° Southwest 441 507 28,000  Level Washington Center
04:42PM 36.5486 -79.5194 217° Southwest 441 507 28,000  Level Washington Center
04:43PM 36.3911 -79.6594 216° Southwest 461 531 28,000  Level Atlanta Center
04:44PM 36.3042 -79.7389 216° Southwest 456 525 28,000  Level Atlanta Center
04:45PM 36.2069 -79.8239 215° Southwest 445 512 28,000  Level Atlanta Center
04:46PM 36.1078 -79.9139 216° Southwest 445 512 28,000  Level Atlanta Center
04:47PM 36.0064 -79.9961 213° Southwest 445 512 28,000  Level Atlanta Center
04:48PM 35.8831 -80.0533 201° Southwest 438 504 28,000 -360 Level Atlanta Center
04:49PM 35.7703 -80.1128 203° Southwest 438 504 27,300 -1,200 Descending Atlanta Center
04:50PM 35.6511 -80.1744 203° Southwest 460 529 25,700 -1,560 Descending Atlanta Center
04:51PM 35.5381 -80.2308 202° Southwest 455 524 24,200 -900 Descending Atlanta Center
04:52PM 35.4394 -80.2789 202° Southwest 437 503 24,000 -660 Descending Atlanta Center
04:53PM 35.3286 -80.3347 202° Southwest 432 497 22,900 -1,020 Descending Atlanta Center
04:54PM 35.2136 -80.3933 203° Southwest 442 509 22,000 -720 Descending Atlanta Center
04:55PM 35.1025 -80.4492 202° Southwest 437 503 21,500 -1,260 Descending Atlanta Center
04:56PM 34.9914 -80.5044 202° Southwest 437 503 19,500 -1,860 Descending Atlanta Center
04:58PM 34.7817 -80.6075 202° Southwest 398 458 16,100 -1,560 Descending Jacksonville Center
04:59PM 34.6783 -80.6583 202° Southwest 391 450 15,000 -840 Descending Jacksonville Center
05:00PM 34.5811 -80.7086 203° Southwest 403 464 14,500 -1,080 Descending Jacksonville Center
05:01PM 34.4797 -80.7592 202° Southwest 408 470 12,900 -1,560 Descending Jacksonville Center
05:02PM 34.3803 -80.8069 202° Southwest 401 461 11,400 -1,440 Descending Jacksonville Center
05:03PM 34.2956 -80.8492 202° Southwest 362 417 10,100 -1,380 Descending Jacksonville Center
05:04PM 34.2147 -80.8836 199° South 317 365 8,700 -1,500 Descending Jacksonville Center
05:05PM 34.1422 -80.9206 203° Southwest 298 343 7,200 -1,500 Descending Jacksonville Center
05:06PM 34.0761 -80.9494 200° South 276 318 5,700 -1,500 Descending Jacksonville Center
05:07PM 34.0092 -80.9511 181° South 253 291 4,200 -1,500 Descending Jacksonville Center
05:08PM 33.9508 -80.9522 181° South 232 267 2,700 -1,500 Descending Jacksonville Center